D/T METAR WX W/SPE G/SPE TEMP DEWP FEEL
25/05/22 01:00 EIDW 250000Z 23009KT 190V260 9999 -RA FEW018 SCT032 BKN060 11/07 Q1007 NOSIG -RA 10.4mph 11°C 7°C 11.0°C
25/05/22 00:30 EIDW 242330Z 22008KT 180V260 9999 FEW018 SCT030 BKN060 11/06 Q1007 NOSIG 9.2mph 11°C 6°C 10.6°C
25/05/22 00:00 EIDW 242300Z 23008KT 190V270 9999 -RA FEW018 SCT030 BKN060 11/06 Q1007 NOSIG -RA 9.2mph 11°C 6°C 10.6°C
24/05/22 23:30 EIDW 242230Z 24008KT 180V280 9999 FEW020 SCT032 BKN090 11/06 Q1007 NOSIG 9.2mph 11°C 6°C 10.6°C
24/05/22 23:00 EIDW 242200Z 24008KT 200V300 9999 FEW020 SCT032 BKN110 11/06 Q1007 NOSIG 9.2mph 11°C 6°C 10.6°C
24/05/22 22:30 EIDW 242130Z 24008KT 210V280 9999 FEW022 SCT032 BKN120 12/06 Q1007 NOSIG 9.2mph 12°C 6°C 11.6°C
24/05/22 22:00 EIDW 242100Z 26010KT 230V290 9999 FEW022 SCT032 BKN130 12/06 Q1008 NOSIG 11.5mph 12°C 6°C 11.6°C
24/05/22 21:30 EIDW 242030Z 26008KT 210V290 9999 FEW022 SCT035 BKN140 12/05 Q1007 NOSIG 9.2mph 12°C 5°C 11.3°C
24/05/22 21:00 EIDW 242000Z 26011KT 230V290 9999 FEW022 SCT035 BKN140 12/05 Q1007 NOSIG 12.7mph 12°C 5°C 11.3°C
24/05/22 20:30 EIDW 241930Z 27015KT 9999 FEW022 SCT050 BKN220 13/05 Q1007 NOSIG 17.3mph 13°C 5°C 12.3°C
24/05/22 20:00 EIDW 241900Z 27014KT 9999 FEW022CB SCT050 BKN220 14/06 Q1007 NOSIG 16.1mph 14°C 6°C 13.6°C
24/05/22 19:30 EIDW 241830Z 28011KT 9999 FEW022CB SCT050 BKN220 14/07 Q1007 NOSIG 12.7mph 14°C 7°C 14.0°C
24/05/22 19:00 EIDW 241800Z 25008G19KT 190V290 9999 -SHRA FEW022CB SCT050 15/08 Q1007 NOSIG -SHRA 9.2mph 21.9mph 15°C 8°C 15.4°C
24/05/22 18:30 EIDW 241730Z 25007KT 190V280 9999 FEW022CB SCT050 15/06 Q1007 NOSIG 8.1mph 15°C 6°C 14.6°C
24/05/22 18:00 EIDW 241700Z 25009KT 200V290 9999 FEW022CB BKN050 14/06 Q1007 NOSIG 10.4mph 14°C 6°C 13.6°C
24/05/22 17:30 EIDW 241630Z 25010KT 200V280 9999 FEW025 BKN050 15/05 Q1007 NOSIG 11.5mph 15°C 5°C 14.3°C
24/05/22 17:00 EIDW 241600Z 27012KT 9999 FEW025 BKN050 15/06 Q1007 NOSIG 13.8mph 15°C 6°C 14.6°C
24/05/22 16:30 EIDW 241530Z 28012KT 9999 FEW025 BKN050 16/07 Q1006 NOSIG 13.8mph 16°C 7°C 16.0°C
24/05/22 16:00 EIDW 241500Z 29009KT 240V310 9999 FEW022 SCT060 16/06 Q1006 NOSIG 10.4mph 16°C 6°C 15.6°C
24/05/22 15:30 EIDW 241430Z 28010KT 240V310 9999 FEW022 SCT060 16/07 Q1006 NOSIG 11.5mph 16°C 7°C 16.0°C
24/05/22 15:00 EIDW 241400Z 30013KT 260V320 9999 FEW022CB BKN060 15/08 Q1007 NOSIG 15.0mph 15°C 8°C 15.4°C
24/05/22 14:30 EIDW 241330Z 28016KT 230V300 9999 FEW022CB BKN060 14/07 Q1006 NOSIG 18.4mph 14°C 7°C 14.0°C
24/05/22 14:00 EIDW 241300Z 28016KT 9999 FEW022CB BKN060 15/05 Q1006 NOSIG 18.4mph 15°C 5°C 14.3°C
24/05/22 13:30 EIDW 241230Z 26016KT 230V290 9999 FEW022CB BKN050 15/05 Q1006 NOSIG 18.4mph 15°C 5°C 14.3°C
24/05/22 13:00 EIDW 241200Z 29016KT 9999 FEW022CB BKN050 13/08 Q1006 NOSIG 18.4mph 13°C 8°C 13.4°C
24/05/22 12:30 EIDW 241130Z 28012KT 250V310 9999 FEW023 BKN050 15/07 Q1006 NOSIG 13.8mph 15°C 7°C 15.0°C
24/05/22 12:00 EIDW 241100Z 27012KT 9999 FEW023 BKN050 13/07 Q1006 NOSIG 13.8mph 13°C 7°C 13.0°C
24/05/22 11:30 EIDW 241030Z 29014KT 9999 FEW020 BKN050 14/06 Q1006 NOSIG 16.1mph 14°C 6°C 13.6°C
24/05/22 11:00 EIDW 241000Z 29013KT 260V320 9999 FEW020 BKN040 14/07 Q1006 NOSIG 15.0mph 14°C 7°C 14.0°C
24/05/22 10:30 EIDW 240930Z 27011KT 230V300 9999 SCT020 13/06 Q1005 NOSIG 12.7mph 13°C 6°C 12.6°C
24/05/22 10:00 EIDW 240900Z 28013KT 250V310 9999 FEW018 SCT050 12/07 Q1005 NOSIG 15.0mph 12°C 7°C 12.0°C
24/05/22 09:30 EIDW 240830Z 28014KT 9999 FEW015 BKN050 13/08 Q1005 NOSIG 16.1mph 13°C 8°C 13.4°C
24/05/22 09:00 EIDW 240800Z 29011KT 260V320 9999 FEW013 BKN050 12/08 Q1005 NOSIG 12.7mph 12°C 8°C 12.4°C
24/05/22 08:30 EIDW 240730Z 27012KT 9999 FEW010 BKN050 11/08 Q1005 NOSIG 13.8mph 11°C 8°C 11.4°C
24/05/22 08:00 EIDW 240700Z 27012KT 9999 FEW010 BKN050 BKN060 10/08 Q1005 NOSIG 13.8mph 10°C 8°C 10.4°C
24/05/22 07:30 EIDW 240630Z 27010KT 9999 -SHRA SCT012 BKN050 09/08 Q1004 NOSIG -SHRA 11.5mph 9°C 8°C 9.4°C
24/05/22 07:00 EIDW 240600Z 27010KT 9999 FEW012 BKN050 09/08 Q1004 NOSIG 11.5mph 9°C 8°C 9.4°C
24/05/22 06:30 EIDW 240530Z 27010KT 9999 FEW012 BKN050 09/07 Q1004 NOSIG 11.5mph 9°C 7°C 9.0°C
24/05/22 06:00 EIDW 240500Z 27011KT 9999 FEW012 BKN050 09/07 Q1004 NOSIG 12.7mph 9°C 7°C 9.0°C
24/05/22 05:30 EIDW 240430Z 27011KT 9999 FEW012 BKN047 BKN060 08/07 Q1003 NOSIG 12.7mph 8°C 7°C 8.0°C
24/05/22 05:00 EIDW 240400Z 27010KT 9999 FEW012 BKN050 08/07 Q1003 NOSIG 11.5mph 8°C 7°C 8.0°C
24/05/22 04:30 EIDW 240330Z 27009KT 9999 FEW012 BKN050 08/07 Q1003 NOSIG 10.4mph 8°C 7°C 8.0°C
24/05/22 04:00 EIDW 240300Z 27010KT 9999 FEW012 BKN050 08/07 Q1003 NOSIG 11.5mph 8°C 7°C 8.0°C
24/05/22 03:30 EIDW 240230Z 27011KT 9999 FEW012 BKN050 08/07 Q1003 NOSIG 12.7mph 8°C 7°C 8.0°C
24/05/22 03:00 EIDW 240200Z 27010KT 9999 FEW012 BKN050 08/07 Q1003 NOSIG 11.5mph 8°C 7°C 8.0°C
24/05/22 02:30 EIDW 240130Z 27011KT 9999 FEW016 BKN050 08/07 Q1003 NOSIG 12.7mph 8°C 7°C 8.0°C
24/05/22 02:00 EIDW 240100Z 27009KT 9999 FEW016 BKN050 BKN250 08/07 Q1003 NOSIG 10.4mph 8°C 7°C 8.0°C
24/05/22 01:30 EIDW 240030Z 27008KT 9999 FEW012 SCT050 08/07 Q1003 NOSIG 9.2mph 8°C 7°C 8.0°C
24/05/22 01:00 EIDW 240000Z 28009KT 9999 FEW012 SCT026 BKN050 09/07 Q1003 NOSIG 10.4mph 9°C 7°C 9.0°C
24/05/22 00:30 EIDW 232330Z 27008KT 9999 FEW017 SCT025 BKN050 09/07 Q1003 NOSIG 9.2mph 9°C 7°C 9.0°C
24/05/22 00:00 EIDW 232300Z 27009KT 9999 FEW018CB SCT033 BKN060 09/07 Q1003 NOSIG 10.4mph 9°C 7°C 9.0°C
23/05/22 23:30 EIDW 232230Z 28009KT 9999 FEW018CB SCT037 BKN050 09/07 Q1003 NOSIG 10.4mph 9°C 7°C 9.0°C
23/05/22 23:00 EIDW 232200Z 27007KT 9999 FEW018CB SCT037 BKN044 09/07 Q1003 NOSIG 8.1mph 9°C 7°C 9.0°C
23/05/22 22:30 EIDW 232130Z 28009KT 7000 -SHRA FEW018CB SCT031 BKN046 10/07 Q1003 NOSIG -SHRA 10.4mph 10°C 7°C 10.0°C
23/05/22 22:00 EIDW 232100Z 28006KT 9999 FEW018CB SCT031 BKN043 09/07 Q1002 NOSIG 6.9mph 9°C 7°C 9.0°C
23/05/22 21:30 EIDW 232030Z VRB02KT 9999 FEW020CB BKN040 09/06 Q1002 NOSIG 2.3mph 9°C 6°C 8.6°C
23/05/22 21:00 EIDW 232000Z VRB03KT 9999 FEW020CB BKN040 11/07 Q1002 NOSIG 3.5mph 11°C 7°C 11.0°C
23/05/22 20:30 EIDW 231930Z 27009KT 9999 FEW020CB BKN050 11/07 Q1002 NOSIG 10.4mph 11°C 7°C 11.0°C
23/05/22 20:00 EIDW 231900Z 27006KT 9999 FEW020CB BKN050 12/07 Q1002 NOSIG 6.9mph 12°C 7°C 12.0°C
23/05/22 19:30 EIDW 231830Z 26007KT 210V300 9999 FEW020CB BKN060 11/07 Q1002 NOSIG 8.1mph 11°C 7°C 11.0°C
23/05/22 19:00 EIDW 231800Z 32008KT 9999 FEW020CB BKN060 11/07 Q1001 NOSIG 9.2mph 11°C 7°C 11.0°C
23/05/22 18:30 EIDW 231730Z 28009KT 9999 -SHRA SCT020CB BKN050 13/08 Q1001 NOSIG -SHRA 10.4mph 13°C 8°C 13.4°C
23/05/22 18:00 EIDW 231700Z 29008KT 9999 -SHRA SCT020CB BKN040 11/07 Q1001 NOSIG -SHRA 9.2mph 11°C 7°C 11.0°C
23/05/22 17:30 EIDW 231630Z 32016KT 9999 SCT020CB BKN040 11/07 Q1002 NOSIG 18.4mph 11°C 7°C 11.0°C
23/05/22 17:00 EIDW 231600Z 28010KT 9999 FEW020CB BKN050 15/07 Q1001 NOSIG 11.5mph 15°C 7°C 15.0°C
23/05/22 16:30 EIDW 231530Z 31009KT 9999 FEW020CB SCT040 BKN100 14/09 Q1001 NOSIG 10.4mph 14°C 9°C 14.8°C
23/05/22 16:00 EIDW 231500Z 29015KT 9999 -SHRA FEW020CB BKN040 10/08 Q1002 NOSIG -SHRA 17.3mph 10°C 8°C 10.4°C
23/05/22 15:30 EIDW 231430Z 28012G26KT 9999 -SHRA FEW020CB BKN040 13/07 Q1001 NOSIG -SHRA 13.8mph 29.9mph 13°C 7°C 13.0°C
23/05/22 15:00 EIDW 231400Z 29009KT 240V320 9999 FEW020CB SCT050 BKN110 15/07 Q1001 NOSIG 10.4mph 15°C 7°C 15.0°C
23/05/22 14:30 EIDW 231330Z 30009KT 9999 FEW020CB BKN060 13/08 Q1002 NOSIG 10.4mph 13°C 8°C 13.4°C
23/05/22 14:00 EIDW 231300Z 29016KT 9999 -SHRA FEW020CB BKN035 12/08 Q1002 NOSIG -SHRA 18.4mph 12°C 8°C 12.4°C
23/05/22 13:30 EIDW 231230Z 28008KT 250V320 9999 FEW020CB BKN040 14/06 Q1002 NOSIG 9.2mph 14°C 6°C 13.6°C
23/05/22 13:00 EIDW 231200Z 29016KT 9999 -SHRA FEW020CB BKN040 12/09 Q1002 NOSIG -SHRA 18.4mph 12°C 9°C 12.8°C
23/05/22 12:30 EIDW 231130Z 29010KT 9999 FEW020CB BKN040 14/07 Q1002 NOSIG 11.5mph 14°C 7°C 14.0°C
23/05/22 12:00 EIDW 231100Z 28010KT 230V320 9999 FEW020CB BKN035 14/09 Q1002 NOSIG 11.5mph 14°C 9°C 14.8°C
23/05/22 11:30 EIDW 231030Z 27011KT 9999 FEW022 BKN040 13/08 Q1002 NOSIG 12.7mph 13°C 8°C 13.4°C
23/05/22 11:00 EIDW 231000Z 27011KT 230V300 9999 FEW018 BKN040 13/08 Q1002 NOSIG 12.7mph 13°C 8°C 13.4°C
23/05/22 10:30 EIDW 230930Z 29011KT 9999 FEW013 SCT018 BKN035 12/08 Q1003 NOSIG 12.7mph 12°C 8°C 12.4°C
23/05/22 10:00 EIDW 230900Z 30010KT 9999 FEW013 SCT018 BKN035 12/08 Q1003 NOSIG 11.5mph 12°C 8°C 12.4°C
23/05/22 09:30 EIDW 230830Z 29009KT 260V320 9999 FEW013 SCT018 BKN035 13/09 Q1003 NOSIG 10.4mph 13°C 9°C 13.8°C
23/05/22 09:00 EIDW 230800Z 28009KT 250V310 9999 FEW012 SCT016 BKN035 12/09 Q1003 NOSIG 10.4mph 12°C 9°C 12.8°C
23/05/22 08:30 EIDW 230730Z 28007KT 230V300 9999 FEW010 SCT015 BKN035 11/09 Q1003 NOSIG 8.1mph 11°C 9°C 11.8°C
23/05/22 08:00 EIDW 230700Z 27009KT 9999 FEW010 SCT014 BKN037 11/09 Q1003 NOSIG 10.4mph 11°C 9°C 11.8°C
23/05/22 07:30 EIDW 230630Z 28011KT 9999 SCT011 BKN035 BKN040 11/09 Q1003 NOSIG 12.7mph 11°C 9°C 11.8°C
23/05/22 07:00 EIDW 230600Z 28009KT 9999 FEW008 FEW015CB SCT033 11/09 Q1003 NOSIG 10.4mph 11°C 9°C 11.8°C
23/05/22 06:30 EIDW 230530Z 27007KT 9999 FEW016 SCT027 BKN033 10/09 Q1003 NOSIG 8.1mph 10°C 9°C 10.8°C
23/05/22 06:00 EIDW 230500Z 28008KT 9999 SCT015 SCT023 BKN030 10/09 Q1003 NOSIG 9.2mph 10°C 9°C 10.8°C
23/05/22 05:30 EIDW 230430Z 28008KT 9999 FEW007 SCT011 BKN015 10/09 Q1003 NOSIG 9.2mph 10°C 9°C 10.8°C
23/05/22 05:00 EIDW 230400Z 27007KT 7000 -RA FEW006 SCT011 BKN017 10/09 Q1003 NOSIG -RA 8.1mph 10°C 9°C 10.8°C
23/05/22 04:30 EIDW 230330Z 26009KT 220V290 9999 -RA FEW009 SCT011 BKN016 10/09 Q1003 NOSIG -RA 10.4mph 10°C 9°C 10.8°C
23/05/22 04:00 EIDW 230300Z 24006KT 210V280 9999 SCT010 SCT022 BKN027 10/09 Q1003 NOSIG 6.9mph 10°C 9°C 10.8°C
23/05/22 03:30 EIDW 230230Z 26005KT 220V290 9999 FEW009 SCT012 BKN025 10/09 Q1003 NOSIG 5.8mph 10°C 9°C 10.8°C
23/05/22 03:00 EIDW 230200Z 23006KT 9999 FEW009 BKN023 BKN031 10/09 Q1003 NOSIG 6.9mph 10°C 9°C 10.8°C
23/05/22 02:30 EIDW 230130Z 24007KT 200V290 9999 FEW014 SCT028 BKN033 10/08 Q1004 NOSIG 8.1mph 10°C 8°C 10.4°C
23/05/22 02:00 EIDW 230100Z 23008KT 190V270 9999 FEW012 SCT022 BKN047 11/08 Q1004 NOSIG 9.2mph 11°C 8°C 11.4°C
23/05/22 01:30 EIDW 230030Z 24007KT 210V280 9999 FEW017 SCT180 BKN220 10/07 Q1004 NOSIG 8.1mph 10°C 7°C 10.0°C